sensor_id;sensor_type;location;lat;lon;timestamp;P1;durP1;ratioP1;P2;durP2;ratioP2
17424;SDS011;8830;50.978;5.058;2022-08-01T00:02:26;1.73;;;1.40;;
17424;SDS011;8830;50.978;5.058;2022-08-01T00:04:53;3.05;;;1.45;;
17424;SDS011;8830;50.978;5.058;2022-08-01T00:07:21;1.60;;;1.30;;
17424;SDS011;8830;50.978;5.058;2022-08-01T00:09:49;1.52;;;1.42;;
17424;SDS011;8830;50.978;5.058;2022-08-01T00:12:17;2.40;;;1.45;;
17424;SDS011;8830;50.978;5.058;2022-08-01T00:14:44;2.38;;;1.40;;
17424;SDS011;8830;50.978;5.058;2022-08-01T00:17:11;3.88;;;1.20;;
17424;SDS011;8830;50.978;5.058;2022-08-01T00:19:39;2.00;;;1.30;;
17424;SDS011;8830;50.978;5.058;2022-08-01T00:22:06;3.50;;;1.48;;
17424;SDS011;8830;50.978;5.058;2022-08-01T00:24:33;1.42;;;1.30;;
17424;SDS011;8830;50.978;5.058;2022-08-01T00:27:00;1.77;;;1.30;;
17424;SDS011;8830;50.978;5.058;2022-08-01T00:29:29;2.08;;;1.33;;
17424;SDS011;8830;50.978;5.058;2022-08-01T00:31:57;1.63;;;1.47;;
17424;SDS011;8830;50.978;5.058;2022-08-01T00:34:24;2.57;;;1.30;;
17424;SDS011;8830;50.978;5.058;2022-08-01T00:36:51;2.40;;;1.73;;
17424;SDS011;8830;50.978;5.058;2022-08-01T00:39:18;1.67;;;1.40;;
17424;SDS011;8830;50.978;5.058;2022-08-01T00:41:45;2.40;;;1.90;;
17424;SDS011;8830;50.978;5.058;2022-08-01T00:44:12;4.32;;;1.75;;
17424;SDS011;8830;50.978;5.058;2022-08-01T00:46:41;2.67;;;1.85;;
17424;SDS011;8830;50.978;5.058;2022-08-01T00:49:08;3.00;;;1.70;;
17424;SDS011;8830;50.978;5.058;2022-08-01T00:51:36;5.07;;;1.75;;
17424;SDS011;8830;50.978;5.058;2022-08-01T00:54:03;2.47;;;1.80;;
17424;SDS011;8830;50.978;5.058;2022-08-01T00:56:30;2.42;;;1.70;;
17424;SDS011;8830;50.978;5.058;2022-08-01T00:58:58;2.22;;;2.03;;
17424;SDS011;8830;50.978;5.058;2022-08-01T01:01:25;3.78;;;2.10;;
17424;SDS011;8830;50.978;5.058;2022-08-01T01:03:54;4.60;;;2.22;;
17424;SDS011;8830;50.978;5.058;2022-08-01T01:06:24;3.35;;;2.10;;
17424;SDS011;8830;50.978;5.058;2022-08-01T01:09:03;4.28;;;2.08;;
17424;SDS011;8830;50.978;5.058;2022-08-01T01:11:43;2.90;;;2.08;;
17424;SDS011;8830;50.978;5.058;2022-08-01T01:14:16;2.63;;;2.00;;
17424;SDS011;8830;50.978;5.058;2022-08-01T01:16:49;3.33;;;2.25;;
17424;SDS011;8830;50.978;5.058;2022-08-01T01:19:23;2.67;;;2.10;;
17424;SDS011;8830;50.978;5.058;2022-08-01T01:22:00;3.85;;;2.40;;
17424;SDS011;8830;50.978;5.058;2022-08-01T01:27:57;4.20;;;2.90;;
17424;SDS011;8830;50.978;5.058;2022-08-01T01:30:37;7.25;;;2.83;;
17424;SDS011;8830;50.978;5.058;2022-08-01T01:33:07;3.50;;;2.67;;
17424;SDS011;8830;50.978;5.058;2022-08-01T01:35:37;6.53;;;3.53;;
17424;SDS011;8830;50.978;5.058;2022-08-01T01:38:09;3.25;;;2.95;;
17424;SDS011;8830;50.978;5.058;2022-08-01T01:40:41;3.33;;;2.90;;
17424;SDS011;8830;50.978;5.058;2022-08-01T01:43:10;4.57;;;3.10;;
17424;SDS011;8830;50.978;5.058;2022-08-01T01:45:40;5.43;;;2.88;;
17424;SDS011;8830;50.978;5.058;2022-08-01T01:48:08;3.45;;;2.88;;
17424;SDS011;8830;50.978;5.058;2022-08-01T01:50:37;4.35;;;2.45;;
17424;SDS011;8830;50.978;5.058;2022-08-01T01:53:06;3.85;;;2.70;;
17424;SDS011;8830;50.978;5.058;2022-08-01T01:55:36;3.67;;;2.30;;
17424;SDS011;8830;50.978;5.058;2022-08-01T01:58:04;3.00;;;2.58;;
17424;SDS011;8830;50.978;5.058;2022-08-01T02:00:33;4.20;;;2.95;;
17424;SDS011;8830;50.978;5.058;2022-08-01T02:03:06;4.45;;;2.78;;
17424;SDS011;8830;50.978;5.058;2022-08-01T02:05:34;6.35;;;3.10;;
17424;SDS011;8830;50.978;5.058;2022-08-01T02:08:03;3.08;;;2.60;;
17424;SDS011;8830;50.978;5.058;2022-08-01T02:10:31;3.88;;;2.90;;
17424;SDS011;8830;50.978;5.058;2022-08-01T02:13:00;5.32;;;2.47;;
17424;SDS011;8830;50.978;5.058;2022-08-01T02:15:30;6.43;;;3.15;;
17424;SDS011;8830;50.978;5.058;2022-08-01T02:17:59;5.05;;;2.80;;
17424;SDS011;8830;50.978;5.058;2022-08-01T02:20:30;3.35;;;2.92;;
17424;SDS011;8830;50.978;5.058;2022-08-01T02:23:01;3.88;;;3.08;;
17424;SDS011;8830;50.978;5.058;2022-08-01T02:25:36;5.15;;;3.15;;
17424;SDS011;8830;50.978;5.058;2022-08-01T02:28:09;3.70;;;3.10;;
17424;SDS011;8830;50.978;5.058;2022-08-01T02:30:41;5.30;;;3.30;;
17424;SDS011;8830;50.978;5.058;2022-08-01T02:33:17;4.35;;;3.13;;
17424;SDS011;8830;50.978;5.058;2022-08-01T02:35:48;5.00;;;3.22;;
17424;SDS011;8830;50.978;5.058;2022-08-01T02:38:18;3.70;;;3.03;;
17424;SDS011;8830;50.978;5.058;2022-08-01T02:40:48;4.25;;;3.15;;
17424;SDS011;8830;50.978;5.058;2022-08-01T02:43:20;4.10;;;3.47;;
17424;SDS011;8830;50.978;5.058;2022-08-01T02:45:51;4.40;;;3.50;;
17424;SDS011;8830;50.978;5.058;2022-08-01T02:48:20;5.10;;;3.55;;
17424;SDS011;8830;50.978;5.058;2022-08-01T02:50:51;4.13;;;3.42;;
17424;SDS011;8830;50.978;5.058;2022-08-01T02:53:21;3.80;;;3.38;;
17424;SDS011;8830;50.978;5.058;2022-08-01T02:55:50;4.18;;;3.08;;
17424;SDS011;8830;50.978;5.058;2022-08-01T02:58:19;6.28;;;3.95;;
17424;SDS011;8830;50.978;5.058;2022-08-01T03:00:49;3.90;;;3.50;;
17424;SDS011;8830;50.978;5.058;2022-08-01T03:03:18;4.00;;;3.50;;
17424;SDS011;8830;50.978;5.058;2022-08-01T03:05:47;6.95;;;3.60;;
17424;SDS011;8830;50.978;5.058;2022-08-01T03:08:16;5.60;;;4.30;;
17424;SDS011;8830;50.978;5.058;2022-08-01T03:10:44;5.22;;;3.92;;
17424;SDS011;8830;50.978;5.058;2022-08-01T03:13:13;6.78;;;4.18;;
17424;SDS011;8830;50.978;5.058;2022-08-01T03:15:42;4.45;;;4.05;;
17424;SDS011;8830;50.978;5.058;2022-08-01T03:18:10;4.95;;;4.18;;
17424;SDS011;8830;50.978;5.058;2022-08-01T03:20:40;7.03;;;4.40;;
17424;SDS011;8830;50.978;5.058;2022-08-01T03:23:09;4.93;;;4.38;;
17424;SDS011;8830;50.978;5.058;2022-08-01T03:25:40;4.55;;;3.95;;
17424;SDS011;8830;50.978;5.058;2022-08-01T03:28:10;5.13;;;4.15;;
17424;SDS011;8830;50.978;5.058;2022-08-01T03:30:40;6.32;;;4.97;;
17424;SDS011;8830;50.978;5.058;2022-08-01T03:33:09;5.75;;;5.15;;
17424;SDS011;8830;50.978;5.058;2022-08-01T03:35:37;7.07;;;5.22;;
17424;SDS011;8830;50.978;5.058;2022-08-01T03:38:08;10.80;;;7.50;;
17424;SDS011;8830;50.978;5.058;2022-08-01T03:40:40;7.88;;;5.38;;
17424;SDS011;8830;50.978;5.058;2022-08-01T03:43:15;8.60;;;6.55;;
17424;SDS011;8830;50.978;5.058;2022-08-01T03:45:46;10.97;;;6.93;;
17424;SDS011;8830;50.978;5.058;2022-08-01T03:48:16;7.13;;;6.50;;
17424;SDS011;8830;50.978;5.058;2022-08-01T03:50:46;9.90;;;7.78;;
17424;SDS011;8830;50.978;5.058;2022-08-01T03:53:16;11.00;;;9.27;;
17424;SDS011;8830;50.978;5.058;2022-08-01T03:55:49;12.57;;;10.65;;
17424;SDS011;8830;50.978;5.058;2022-08-01T03:58:16;14.00;;;11.70;;
17424;SDS011;8830;50.978;5.058;2022-08-01T04:00:43;16.55;;;11.93;;
17424;SDS011;8830;50.978;5.058;2022-08-01T04:03:12;15.05;;;11.68;;
17424;SDS011;8830;50.978;5.058;2022-08-01T04:05:40;14.25;;;12.32;;
17424;SDS011;8830;50.978;5.058;2022-08-01T04:08:08;13.93;;;12.05;;
17424;SDS011;8830;50.978;5.058;2022-08-01T04:10:36;15.82;;;12.98;;
17424;SDS011;8830;50.978;5.058;2022-08-01T04:13:09;14.35;;;12.13;;
17424;SDS011;8830;50.978;5.058;2022-08-01T04:15:36;15.70;;;13.55;;
17424;SDS011;8830;50.978;5.058;2022-08-01T04:18:05;17.00;;;13.33;;
17424;SDS011;8830;50.978;5.058;2022-08-01T04:20:33;14.90;;;13.23;;
17424;SDS011;8830;50.978;5.058;2022-08-01T04:23:00;16.42;;;13.55;;
17424;SDS011;8830;50.978;5.058;2022-08-01T04:25:36;16.00;;;12.95;;
17424;SDS011;8830;50.978;5.058;2022-08-01T04:28:10;22.23;;;14.67;;
17424;SDS011;8830;50.978;5.058;2022-08-01T04:30:47;16.08;;;14.38;;
17424;SDS011;8830;50.978;5.058;2022-08-01T04:33:22;24.92;;;17.20;;
17424;SDS011;8830;50.978;5.058;2022-08-01T04:35:51;22.80;;;18.10;;
17424;SDS011;8830;50.978;5.058;2022-08-01T04:38:31;29.03;;;19.80;;
17424;SDS011;8830;50.978;5.058;2022-08-01T04:41:07;26.23;;;18.83;;
17424;SDS011;8830;50.978;5.058;2022-08-01T04:43:47;22.30;;;19.02;;
17424;SDS011;8830;50.978;5.058;2022-08-01T04:46:36;27.57;;;20.80;;
17424;SDS011;8830;50.978;5.058;2022-08-01T04:49:11;21.73;;;18.47;;
17424;SDS011;8830;50.978;5.058;2022-08-01T04:51:59;24.97;;;19.13;;
17424;SDS011;8830;50.978;5.058;2022-08-01T04:54:34;28.67;;;19.33;;
17424;SDS011;8830;50.978;5.058;2022-08-01T04:57:16;22.57;;;17.20;;
17424;SDS011;8830;50.978;5.058;2022-08-01T04:59:57;17.70;;;15.17;;
17424;SDS011;8830;50.978;5.058;2022-08-01T05:02:28;19.43;;;16.67;;
17424;SDS011;8830;50.978;5.058;2022-08-01T05:04:56;18.57;;;16.73;;
17424;SDS011;8830;50.978;5.058;2022-08-01T05:07:23;17.80;;;15.63;;
17424;SDS011;8830;50.978;5.058;2022-08-01T05:09:51;13.20;;;12.00;;
17424;SDS011;8830;50.978;5.058;2022-08-01T05:12:19;14.67;;;12.30;;
17424;SDS011;8830;50.978;5.058;2022-08-01T05:14:46;13.70;;;12.33;;
17424;SDS011;8830;50.978;5.058;2022-08-01T05:17:16;14.20;;;12.60;;
17424;SDS011;8830;50.978;5.058;2022-08-01T05:19:45;20.80;;;13.40;;
17424;SDS011;8830;50.978;5.058;2022-08-01T05:22:13;17.37;;;13.83;;
17424;SDS011;8830;50.978;5.058;2022-08-01T05:24:40;16.30;;;13.03;;
17424;SDS011;8830;50.978;5.058;2022-08-01T05:27:09;17.60;;;13.53;;
17424;SDS011;8830;50.978;5.058;2022-08-01T05:29:40;17.80;;;12.90;;
17424;SDS011;8830;50.978;5.058;2022-08-01T05:32:08;16.80;;;13.00;;
17424;SDS011;8830;50.978;5.058;2022-08-01T05:34:38;17.47;;;12.30;;
17424;SDS011;8830;50.978;5.058;2022-08-01T05:37:05;15.80;;;13.43;;
17424;SDS011;8830;50.978;5.058;2022-08-01T05:39:32;19.80;;;12.20;;
17424;SDS011;8830;50.978;5.058;2022-08-01T05:42:01;15.53;;;11.70;;
17424;SDS011;8830;50.978;5.058;2022-08-01T05:44:35;14.67;;;11.53;;
17424;SDS011;8830;50.978;5.058;2022-08-01T05:47:06;14.07;;;12.53;;
17424;SDS011;8830;50.978;5.058;2022-08-01T05:49:33;14.37;;;12.77;;
17424;SDS011;8830;50.978;5.058;2022-08-01T05:52:03;12.93;;;11.70;;
17424;SDS011;8830;50.978;5.058;2022-08-01T05:54:31;17.40;;;11.97;;
17424;SDS011;8830;50.978;5.058;2022-08-01T05:56:59;12.30;;;11.00;;
17424;SDS011;8830;50.978;5.058;2022-08-01T05:59:26;13.93;;;11.20;;
17424;SDS011;8830;50.978;5.058;2022-08-01T06:01:54;12.05;;;10.80;;
17424;SDS011;8830;50.978;5.058;2022-08-01T06:04:21;13.03;;;11.57;;
17424;SDS011;8830;50.978;5.058;2022-08-01T06:06:49;14.47;;;10.83;;
17424;SDS011;8830;50.978;5.058;2022-08-01T06:09:19;11.87;;;10.00;;
17424;SDS011;8830;50.978;5.058;2022-08-01T06:11:49;11.17;;;9.63;;
17424;SDS011;8830;50.978;5.058;2022-08-01T06:14:17;10.50;;;9.50;;
17424;SDS011;8830;50.978;5.058;2022-08-01T06:16:45;11.70;;;10.33;;
17424;SDS011;8830;50.978;5.058;2022-08-01T06:19:14;10.40;;;9.40;;
17424;SDS011;8830;50.978;5.058;2022-08-01T06:21:43;11.30;;;9.10;;
17424;SDS011;8830;50.978;5.058;2022-08-01T06:24:11;10.47;;;9.33;;
17424;SDS011;8830;50.978;5.058;2022-08-01T06:26:41;19.07;;;16.90;;
17424;SDS011;8830;50.978;5.058;2022-08-01T06:29:08;10.80;;;9.73;;
17424;SDS011;8830;50.978;5.058;2022-08-01T06:31:36;8.73;;;7.80;;
17424;SDS011;8830;50.978;5.058;2022-08-01T06:34:04;10.13;;;9.23;;
17424;SDS011;8830;50.978;5.058;2022-08-01T06:36:31;11.18;;;8.20;;
17424;SDS011;8830;50.978;5.058;2022-08-01T06:38:59;11.30;;;8.10;;
17424;SDS011;8830;50.978;5.058;2022-08-01T06:41:27;9.40;;;8.53;;
17424;SDS011;8830;50.978;5.058;2022-08-01T06:43:57;8.10;;;7.30;;
17424;SDS011;8830;50.978;5.058;2022-08-01T06:46:27;9.53;;;7.70;;
17424;SDS011;8830;50.978;5.058;2022-08-01T06:48:55;8.48;;;7.75;;
17424;SDS011;8830;50.978;5.058;2022-08-01T06:51:22;8.98;;;7.50;;
17424;SDS011;8830;50.978;5.058;2022-08-01T06:53:50;8.20;;;6.80;;
17424;SDS011;8830;50.978;5.058;2022-08-01T06:56:18;7.15;;;6.47;;
17424;SDS011;8830;50.978;5.058;2022-08-01T06:58:45;8.57;;;7.68;;
17424;SDS011;8830;50.978;5.058;2022-08-01T07:01:13;7.43;;;5.60;;
17424;SDS011;8830;50.978;5.058;2022-08-01T07:03:40;5.85;;;5.35;;
17424;SDS011;8830;50.978;5.058;2022-08-01T07:06:07;7.07;;;5.55;;
17424;SDS011;8830;50.978;5.058;2022-08-01T07:08:34;6.13;;;5.40;;
17424;SDS011;8830;50.978;5.058;2022-08-01T07:11:02;5.88;;;5.40;;
17424;SDS011;8830;50.978;5.058;2022-08-01T07:13:31;5.93;;;5.25;;
17424;SDS011;8830;50.978;5.058;2022-08-01T07:15:59;6.85;;;4.82;;
17424;SDS011;8830;50.978;5.058;2022-08-01T07:18:27;7.28;;;4.00;;
17424;SDS011;8830;50.978;5.058;2022-08-01T07:20:54;4.45;;;4.03;;
17424;SDS011;8830;50.978;5.058;2022-08-01T07:23:21;4.55;;;3.95;;
17424;SDS011;8830;50.978;5.058;2022-08-01T07:25:52;4.97;;;3.90;;
17424;SDS011;8830;50.978;5.058;2022-08-01T07:28:19;5.60;;;4.28;;
17424;SDS011;8830;50.978;5.058;2022-08-01T07:30:48;3.90;;;3.53;;
17424;SDS011;8830;50.978;5.058;2022-08-01T07:33:17;4.68;;;3.85;;
17424;SDS011;8830;50.978;5.058;2022-08-01T07:35:48;4.75;;;3.75;;
17424;SDS011;8830;50.978;5.058;2022-08-01T07:38:16;3.67;;;3.38;;
17424;SDS011;8830;50.978;5.058;2022-08-01T07:40:49;5.25;;;3.58;;
17424;SDS011;8830;50.978;5.058;2022-08-01T07:43:16;4.35;;;3.55;;
17424;SDS011;8830;50.978;5.058;2022-08-01T07:45:45;4.25;;;3.15;;
17424;SDS011;8830;50.978;5.058;2022-08-01T07:48:13;3.75;;;3.45;;
17424;SDS011;8830;50.978;5.058;2022-08-01T07:50:40;3.47;;;3.17;;
17424;SDS011;8830;50.978;5.058;2022-08-01T07:53:08;5.50;;;3.50;;
17424;SDS011;8830;50.978;5.058;2022-08-01T07:55:42;2.97;;;2.78;;
17424;SDS011;8830;50.978;5.058;2022-08-01T07:58:09;3.50;;;3.05;;
17424;SDS011;8830;50.978;5.058;2022-08-01T08:00:36;2.95;;;2.75;;
17424;SDS011;8830;50.978;5.058;2022-08-01T08:03:04;2.80;;;2.58;;
17424;SDS011;8830;50.978;5.058;2022-08-01T08:05:31;3.28;;;2.90;;
17424;SDS011;8830;50.978;5.058;2022-08-01T08:08:01;4.00;;;2.95;;
17424;SDS011;8830;50.978;5.058;2022-08-01T08:10:31;5.25;;;3.58;;
17424;SDS011;8830;50.978;5.058;2022-08-01T08:13:00;8.90;;;8.00;;
17424;SDS011;8830;50.978;5.058;2022-08-01T08:15:29;4.15;;;2.97;;
17424;SDS011;8830;50.978;5.058;2022-08-01T08:17:57;3.78;;;3.13;;
17424;SDS011;8830;50.978;5.058;2022-08-01T08:20:24;3.40;;;3.10;;
17424;SDS011;8830;50.978;5.058;2022-08-01T08:22:52;4.22;;;2.60;;
17424;SDS011;8830;50.978;5.058;2022-08-01T08:25:20;3.25;;;2.63;;
17424;SDS011;8830;50.978;5.058;2022-08-01T08:27:49;3.67;;;2.90;;
17424;SDS011;8830;50.978;5.058;2022-08-01T08:30:18;4.35;;;2.97;;
17424;SDS011;8830;50.978;5.058;2022-08-01T08:32:45;2.88;;;2.60;;
17424;SDS011;8830;50.978;5.058;2022-08-01T08:35:14;3.33;;;2.50;;
17424;SDS011;8830;50.978;5.058;2022-08-01T08:37:41;3.00;;;2.30;;
17424;SDS011;8830;50.978;5.058;2022-08-01T08:40:08;4.10;;;2.97;;
17424;SDS011;8830;50.978;5.058;2022-08-01T08:42:39;2.90;;;2.70;;
17424;SDS011;8830;50.978;5.058;2022-08-01T08:45:11;2.42;;;1.77;;
17424;SDS011;8830;50.978;5.058;2022-08-01T08:47:39;1.60;;;1.50;;
17424;SDS011;8830;50.978;5.058;2022-08-01T08:50:08;2.85;;;1.92;;
17424;SDS011;8830;50.978;5.058;2022-08-01T08:52:35;1.90;;;1.80;;
17424;SDS011;8830;50.978;5.058;2022-08-01T08:55:05;1.50;;;1.40;;
17424;SDS011;8830;50.978;5.058;2022-08-01T08:57:34;3.30;;;1.65;;
17424;SDS011;8830;50.978;5.058;2022-08-01T09:00:04;1.73;;;1.63;;
17424;SDS011;8830;50.978;5.058;2022-08-01T09:02:36;1.33;;;1.23;;
17424;SDS011;8830;50.978;5.058;2022-08-01T09:05:07;1.20;;;1.10;;
17424;SDS011;8830;50.978;5.058;2022-08-01T09:07:35;1.33;;;1.13;;
17424;SDS011;8830;50.978;5.058;2022-08-01T09:10:03;1.30;;;1.20;;
17424;SDS011;8830;50.978;5.058;2022-08-01T09:12:31;2.10;;;1.90;;
17424;SDS011;8830;50.978;5.058;2022-08-01T09:14:59;2.55;;;2.00;;
17424;SDS011;8830;50.978;5.058;2022-08-01T09:17:26;2.03;;;1.83;;
17424;SDS011;8830;50.978;5.058;2022-08-01T09:19:55;4.20;;;2.35;;
17424;SDS011;8830;50.978;5.058;2022-08-01T09:22:33;2.10;;;1.90;;
17424;SDS011;8830;50.978;5.058;2022-08-01T09:25:24;2.20;;;2.10;;
17424;SDS011;8830;50.978;5.058;2022-08-01T09:28:32;3.75;;;1.70;;
17424;SDS011;8830;50.978;5.058;2022-08-01T09:34:07;1.50;;;1.40;;
17424;SDS011;8830;50.978;5.058;2022-08-01T09:40:12;1.20;;;1.10;;
17424;SDS011;8830;50.978;5.058;2022-08-01T09:55:50;0.75;;;0.70;;
17424;SDS011;8830;50.978;5.058;2022-08-01T09:58:29;1.30;;;1.20;;
17424;SDS011;8830;50.978;5.058;2022-08-01T10:01:19;1.08;;;0.70;;
17424;SDS011;8830;50.978;5.058;2022-08-01T10:04:03;1.25;;;1.13;;
17424;SDS011;8830;50.978;5.058;2022-08-01T10:06:36;1.00;;;0.90;;
17424;SDS011;8830;50.978;5.058;2022-08-01T10:09:04;1.85;;;1.23;;
17424;SDS011;8830;50.978;5.058;2022-08-01T10:11:33;0.75;;;0.70;;
17424;SDS011;8830;50.978;5.058;2022-08-01T10:14:04;0.88;;;0.88;;
17424;SDS011;8830;50.978;5.058;2022-08-01T10:16:34;1.67;;;0.70;;
17424;SDS011;8830;50.978;5.058;2022-08-01T10:19:03;1.05;;;1.05;;
17424;SDS011;8830;50.978;5.058;2022-08-01T10:21:33;1.77;;;1.67;;
17424;SDS011;8830;50.978;5.058;2022-08-01T10:24:03;2.03;;;1.92;;
17424;SDS011;8830;50.978;5.058;2022-08-01T10:26:35;2.05;;;1.95;;
17424;SDS011;8830;50.978;5.058;2022-08-01T10:29:04;1.90;;;1.80;;
17424;SDS011;8830;50.978;5.058;2022-08-01T10:31:31;1.80;;;1.70;;
17424;SDS011;8830;50.978;5.058;2022-08-01T10:33:59;1.63;;;1.52;;
17424;SDS011;8830;50.978;5.058;2022-08-01T10:36:27;2.17;;;1.45;;
17424;SDS011;8830;50.978;5.058;2022-08-01T10:38:56;1.35;;;1.27;;
17424;SDS011;8830;50.978;5.058;2022-08-01T10:41:24;3.65;;;1.52;;
17424;SDS011;8830;50.978;5.058;2022-08-01T10:43:54;0.85;;;0.82;;
17424;SDS011;8830;50.978;5.058;2022-08-01T10:46:24;1.98;;;1.08;;
17424;SDS011;8830;50.978;5.058;2022-08-01T10:48:56;1.27;;;1.00;;
17424;SDS011;8830;50.978;5.058;2022-08-01T10:51:29;1.50;;;1.38;;
17424;SDS011;8830;50.978;5.058;2022-08-01T10:53:57;1.02;;;1.02;;
17424;SDS011;8830;50.978;5.058;2022-08-01T10:56:38;1.10;;;1.10;;
17424;SDS011;8830;50.978;5.058;2022-08-01T10:59:08;1.25;;;1.15;;
17424;SDS011;8830;50.978;5.058;2022-08-01T11:01:35;1.20;;;1.10;;
17424;SDS011;8830;50.978;5.058;2022-08-01T11:04:05;1.75;;;1.60;;
17424;SDS011;8830;50.978;5.058;2022-08-01T11:06:49;2.17;;;1.80;;
17424;SDS011;8830;50.978;5.058;2022-08-01T11:09:26;0.63;;;0.63;;
17424;SDS011;8830;50.978;5.058;2022-08-01T11:11:58;1.92;;;1.10;;
17424;SDS011;8830;50.978;5.058;2022-08-01T11:14:31;1.05;;;0.80;;
17424;SDS011;8830;50.978;5.058;2022-08-01T11:20:07;0.68;;;0.60;;
17424;SDS011;8830;50.978;5.058;2022-08-01T11:28:36;2.60;;;0.88;;
17424;SDS011;8830;50.978;5.058;2022-08-01T11:33:58;0.40;;;0.40;;
17424;SDS011;8830;50.978;5.058;2022-08-01T11:36:27;2.88;;;1.70;;
17424;SDS011;8830;50.978;5.058;2022-08-01T11:39:14;1.33;;;0.80;;
17424;SDS011;8830;50.978;5.058;2022-08-01T11:41:43;0.73;;;0.73;;
17424;SDS011;8830;50.978;5.058;2022-08-01T11:44:18;1.02;;;0.68;;
17424;SDS011;8830;50.978;5.058;2022-08-01T11:46:53;2.40;;;0.60;;
17424;SDS011;8830;50.978;5.058;2022-08-01T11:49:22;0.95;;;0.75;;
17424;SDS011;8830;50.978;5.058;2022-08-01T11:51:57;0.70;;;0.70;;
17424;SDS011;8830;50.978;5.058;2022-08-01T11:54:26;0.73;;;0.70;;
17424;SDS011;8830;50.978;5.058;2022-08-01T11:56:55;1.33;;;0.77;;
17424;SDS011;8830;50.978;5.058;2022-08-01T11:59:23;1.13;;;0.80;;
17424;SDS011;8830;50.978;5.058;2022-08-01T12:01:50;0.88;;;0.60;;
17424;SDS011;8830;50.978;5.058;2022-08-01T12:04:21;1.48;;;0.90;;
17424;SDS011;8830;50.978;5.058;2022-08-01T12:06:48;1.95;;;0.80;;
17424;SDS011;8830;50.978;5.058;2022-08-01T12:09:16;1.40;;;1.30;;
17424;SDS011;8830;50.978;5.058;2022-08-01T12:11:45;1.13;;;0.80;;
17424;SDS011;8830;50.978;5.058;2022-08-01T12:14:19;1.58;;;0.95;;
17424;SDS011;8830;50.978;5.058;2022-08-01T12:16:49;1.52;;;0.80;;
17424;SDS011;8830;50.978;5.058;2022-08-01T12:19:20;1.02;;;0.93;;
17424;SDS011;8830;50.978;5.058;2022-08-01T12:22:11;1.17;;;0.85;;
17424;SDS011;8830;50.978;5.058;2022-08-01T12:24:41;1.27;;;0.80;;
17424;SDS011;8830;50.978;5.058;2022-08-01T12:27:09;3.15;;;0.70;;
17424;SDS011;8830;50.978;5.058;2022-08-01T12:29:38;0.85;;;0.75;;
17424;SDS011;8830;50.978;5.058;2022-08-01T12:35:03;2.80;;;1.23;;
17424;SDS011;8830;50.978;5.058;2022-08-01T12:37:32;2.65;;;1.42;;
17424;SDS011;8830;50.978;5.058;2022-08-01T12:40:02;3.80;;;1.48;;
17424;SDS011;8830;50.978;5.058;2022-08-01T12:42:36;6.68;;;1.02;;
17424;SDS011;8830;50.978;5.058;2022-08-01T12:45:04;3.28;;;1.73;;
17424;SDS011;8830;50.978;5.058;2022-08-01T12:47:34;2.55;;;1.10;;
17424;SDS011;8830;50.978;5.058;2022-08-01T12:50:04;1.52;;;1.00;;
17424;SDS011;8830;50.978;5.058;2022-08-01T12:52:33;1.20;;;0.90;;
17424;SDS011;8830;50.978;5.058;2022-08-01T12:55:08;3.47;;;1.20;;
17424;SDS011;8830;50.978;5.058;2022-08-01T12:57:40;2.10;;;1.67;;
17424;SDS011;8830;50.978;5.058;2022-08-01T13:03:02;2.08;;;1.00;;
17424;SDS011;8830;50.978;5.058;2022-08-01T13:05:46;2.58;;;1.27;;
17424;SDS011;8830;50.978;5.058;2022-08-01T13:08:17;3.60;;;0.75;;
17424;SDS011;8830;50.978;5.058;2022-08-01T13:10:49;1.75;;;1.15;;
17424;SDS011;8830;50.978;5.058;2022-08-01T13:13:34;3.30;;;1.35;;
17424;SDS011;8830;50.978;5.058;2022-08-01T13:16:08;2.80;;;2.47;;
17424;SDS011;8830;50.978;5.058;2022-08-01T13:18:39;1.42;;;1.00;;
17424;SDS011;8830;50.978;5.058;2022-08-01T13:21:09;1.27;;;1.00;;
17424;SDS011;8830;50.978;5.058;2022-08-01T13:23:41;1.63;;;1.00;;
17424;SDS011;8830;50.978;5.058;2022-08-01T13:26:41;2.38;;;1.13;;
17424;SDS011;8830;50.978;5.058;2022-08-01T13:29:16;1.98;;;1.67;;
17424;SDS011;8830;50.978;5.058;2022-08-01T13:31:56;2.35;;;0.85;;
17424;SDS011;8830;50.978;5.058;2022-08-01T13:34:31;2.42;;;0.80;;
17424;SDS011;8830;50.978;5.058;2022-08-01T13:37:11;1.42;;;1.05;;
17424;SDS011;8830;50.978;5.058;2022-08-01T13:39:43;2.42;;;1.50;;
17424;SDS011;8830;50.978;5.058;2022-08-01T13:42:19;4.85;;;1.70;;
17424;SDS011;8830;50.978;5.058;2022-08-01T13:44:52;4.82;;;1.42;;
17424;SDS011;8830;50.978;5.058;2022-08-01T13:47:30;0.98;;;0.85;;
17424;SDS011;8830;50.978;5.058;2022-08-01T13:50:08;1.35;;;1.20;;
17424;SDS011;8830;50.978;5.058;2022-08-01T13:55:50;3.72;;;1.38;;
17424;SDS011;8830;50.978;5.058;2022-08-01T13:58:18;3.30;;;1.02;;
17424;SDS011;8830;50.978;5.058;2022-08-01T14:00:54;2.90;;;1.23;;
17424;SDS011;8830;50.978;5.058;2022-08-01T14:03:30;2.75;;;0.93;;
17424;SDS011;8830;50.978;5.058;2022-08-01T14:06:02;1.70;;;1.27;;
17424;SDS011;8830;50.978;5.058;2022-08-01T14:08:34;1.70;;;1.40;;
17424;SDS011;8830;50.978;5.058;2022-08-01T14:11:04;1.27;;;1.15;;
17424;SDS011;8830;50.978;5.058;2022-08-01T14:13:31;1.58;;;1.10;;
17424;SDS011;8830;50.978;5.058;2022-08-01T14:15:59;2.50;;;1.63;;
17424;SDS011;8830;50.978;5.058;2022-08-01T14:18:27;1.45;;;0.90;;
17424;SDS011;8830;50.978;5.058;2022-08-01T14:20:55;2.47;;;1.08;;
17424;SDS011;8830;50.978;5.058;2022-08-01T14:23:25;2.25;;;1.35;;
17424;SDS011;8830;50.978;5.058;2022-08-01T14:25:54;2.47;;;1.08;;
17424;SDS011;8830;50.978;5.058;2022-08-01T14:28:24;1.38;;;1.08;;
17424;SDS011;8830;50.978;5.058;2022-08-01T14:30:54;1.95;;;0.90;;
17424;SDS011;8830;50.978;5.058;2022-08-01T14:33:22;2.05;;;1.30;;
17424;SDS011;8830;50.978;5.058;2022-08-01T14:35:52;1.30;;;1.20;;
17424;SDS011;8830;50.978;5.058;2022-08-01T14:38:20;1.77;;;1.48;;
17424;SDS011;8830;50.978;5.058;2022-08-01T14:40:47;2.85;;;1.35;;
17424;SDS011;8830;50.978;5.058;2022-08-01T14:43:16;1.88;;;1.38;;
17424;SDS011;8830;50.978;5.058;2022-08-01T14:45:45;2.28;;;1.23;;
17424;SDS011;8830;50.978;5.058;2022-08-01T14:48:15;2.08;;;1.38;;
17424;SDS011;8830;50.978;5.058;2022-08-01T14:50:42;1.40;;;1.20;;
17424;SDS011;8830;50.978;5.058;2022-08-01T14:53:10;3.90;;;1.20;;
17424;SDS011;8830;50.978;5.058;2022-08-01T14:55:39;3.42;;;1.30;;
17424;SDS011;8830;50.978;5.058;2022-08-01T14:58:08;1.30;;;1.20;;
17424;SDS011;8830;50.978;5.058;2022-08-01T15:00:36;2.83;;;1.40;;
17424;SDS011;8830;50.978;5.058;2022-08-01T15:03:04;1.15;;;0.85;;
17424;SDS011;8830;50.978;5.058;2022-08-01T15:05:32;1.90;;;1.17;;
17424;SDS011;8830;50.978;5.058;2022-08-01T15:07:59;1.38;;;1.20;;
17424;SDS011;8830;50.978;5.058;2022-08-01T15:10:27;1.67;;;1.20;;
17424;SDS011;8830;50.978;5.058;2022-08-01T15:12:55;2.72;;;1.30;;
17424;SDS011;8830;50.978;5.058;2022-08-01T15:15:24;1.65;;;1.00;;
17424;SDS011;8830;50.978;5.058;2022-08-01T15:17:53;1.65;;;1.38;;
17424;SDS011;8830;50.978;5.058;2022-08-01T15:20:22;2.72;;;1.33;;
17424;SDS011;8830;50.978;5.058;2022-08-01T15:22:49;2.53;;;1.40;;
17424;SDS011;8830;50.978;5.058;2022-08-01T15:25:18;1.27;;;1.15;;
17424;SDS011;8830;50.978;5.058;2022-08-01T15:27:45;1.92;;;1.27;;
17424;SDS011;8830;50.978;5.058;2022-08-01T15:30:13;2.95;;;1.50;;
17424;SDS011;8830;50.978;5.058;2022-08-01T15:32:40;2.63;;;1.50;;
17424;SDS011;8830;50.978;5.058;2022-08-01T15:35:08;1.77;;;1.42;;
17424;SDS011;8830;50.978;5.058;2022-08-01T15:37:39;1.50;;;1.40;;
17424;SDS011;8830;50.978;5.058;2022-08-01T15:40:10;2.05;;;1.48;;
17424;SDS011;8830;50.978;5.058;2022-08-01T15:42:41;3.13;;;2.00;;
17424;SDS011;8830;50.978;5.058;2022-08-01T15:45:12;3.22;;;1.48;;
17424;SDS011;8830;50.978;5.058;2022-08-01T15:47:46;1.92;;;1.63;;
17424;SDS011;8830;50.978;5.058;2022-08-01T15:50:14;2.42;;;1.90;;
17424;SDS011;8830;50.978;5.058;2022-08-01T15:52:43;2.35;;;1.40;;
17424;SDS011;8830;50.978;5.058;2022-08-01T15:55:11;3.13;;;1.83;;
17424;SDS011;8830;50.978;5.058;2022-08-01T15:57:38;2.63;;;1.70;;
17424;SDS011;8830;50.978;5.058;2022-08-01T16:00:06;1.70;;;1.60;;
17424;SDS011;8830;50.978;5.058;2022-08-01T16:02:34;2.78;;;1.48;;